sensor_id;sensor_type;location;lat;lon;timestamp;temperature;humidity
51914;DHT22;37940;53.002;6.930;2022-10-28T00:01:07;14.80;99.90
51914;DHT22;37940;53.002;6.930;2022-10-28T00:03:37;14.80;99.90
51914;DHT22;37940;53.002;6.930;2022-10-28T00:06:09;14.80;99.90
51914;DHT22;37940;53.002;6.930;2022-10-28T00:08:36;14.70;99.90
51914;DHT22;37940;53.002;6.930;2022-10-28T00:11:16;14.70;99.90
51914;DHT22;37940;53.002;6.930;2022-10-28T00:13:43;14.70;99.90
51914;DHT22;37940;53.002;6.930;2022-10-28T00:16:13;14.60;99.90
51914;DHT22;37940;53.002;6.930;2022-10-28T00:18:39;14.60;99.90
51914;DHT22;37940;53.002;6.930;2022-10-28T00:21:14;14.60;99.90
51914;DHT22;37940;53.002;6.930;2022-10-28T00:23:40;14.60;99.90
51914;DHT22;37940;53.002;6.930;2022-10-28T00:26:07;14.60;99.90
51914;DHT22;37940;53.002;6.930;2022-10-28T00:28:34;14.60;99.90
51914;DHT22;37940;53.002;6.930;2022-10-28T00:31:07;14.50;99.90
51914;DHT22;37940;53.002;6.930;2022-10-28T00:33:33;14.40;99.90
51914;DHT22;37940;53.002;6.930;2022-10-28T00:36:18;14.40;99.90
51914;DHT22;37940;53.002;6.930;2022-10-28T00:38:46;14.30;99.90
51914;DHT22;37940;53.002;6.930;2022-10-28T00:41:14;14.30;99.90
51914;DHT22;37940;53.002;6.930;2022-10-28T00:43:46;14.20;99.90
51914;DHT22;37940;53.002;6.930;2022-10-28T00:46:21;14.20;99.90
51914;DHT22;37940;53.002;6.930;2022-10-28T00:49:27;14.20;99.90
51914;DHT22;37940;53.002;6.930;2022-10-28T00:52:26;14.20;99.90
51914;DHT22;37940;53.002;6.930;2022-10-28T00:54:54;14.20;99.90
51914;DHT22;37940;53.002;6.930;2022-10-28T00:57:24;14.20;99.90
51914;DHT22;37940;53.002;6.930;2022-10-28T00:59:53;14.20;99.90
51914;DHT22;37940;53.002;6.930;2022-10-28T01:02:19;14.20;99.90
51914;DHT22;37940;53.002;6.930;2022-10-28T01:04:46;14.20;99.90
51914;DHT22;37940;53.002;6.930;2022-10-28T01:07:12;14.20;99.90
51914;DHT22;37940;53.002;6.930;2022-10-28T01:09:39;14.20;99.90
51914;DHT22;37940;53.002;6.930;2022-10-28T01:12:13;14.30;99.90
51914;DHT22;37940;53.002;6.930;2022-10-28T01:34:19;14.30;99.90
51914;DHT22;37940;53.002;6.930;2022-10-28T01:44:04;14.30;99.90
51914;DHT22;37940;53.002;6.930;2022-10-28T01:46:48;14.30;99.90
51914;DHT22;37940;53.002;6.930;2022-10-28T01:49:39;14.20;99.90
51914;DHT22;37940;53.002;6.930;2022-10-28T01:52:15;14.20;99.90
51914;DHT22;37940;53.002;6.930;2022-10-28T01:55:04;14.20;99.90
51914;DHT22;37940;53.002;6.930;2022-10-28T01:57:33;14.20;99.90
51914;DHT22;37940;53.002;6.930;2022-10-28T02:00:01;14.20;99.90
51914;DHT22;37940;53.002;6.930;2022-10-28T02:02:32;14.10;99.90
51914;DHT22;37940;53.002;6.930;2022-10-28T02:05:45;14.10;99.90
51914;DHT22;37940;53.002;6.930;2022-10-28T02:10:56;13.90;99.90
51914;DHT22;37940;53.002;6.930;2022-10-28T02:13:52;13.90;99.90
51914;DHT22;37940;53.002;6.930;2022-10-28T02:16:25;13.80;99.90
51914;DHT22;37940;53.002;6.930;2022-10-28T02:19:24;13.80;99.90
51914;DHT22;37940;53.002;6.930;2022-10-28T02:25:06;13.70;99.90
51914;DHT22;37940;53.002;6.930;2022-10-28T02:30:16;13.80;99.90
51914;DHT22;37940;53.002;6.930;2022-10-28T02:32:46;13.70;99.90
51914;DHT22;37940;53.002;6.930;2022-10-28T02:35:36;13.70;99.90
51914;DHT22;37940;53.002;6.930;2022-10-28T02:38:08;13.60;99.90
51914;DHT22;37940;53.002;6.930;2022-10-28T02:40:36;13.60;99.90
51914;DHT22;37940;53.002;6.930;2022-10-28T02:43:05;13.60;99.90
51914;DHT22;37940;53.002;6.930;2022-10-28T02:45:54;13.60;99.90
51914;DHT22;37940;53.002;6.930;2022-10-28T02:51:19;13.50;99.90
51914;DHT22;37940;53.002;6.930;2022-10-28T02:54:00;13.50;99.90
51914;DHT22;37940;53.002;6.930;2022-10-28T02:56:30;13.50;99.90
51914;DHT22;37940;53.002;6.930;2022-10-28T02:58:59;13.50;99.90
51914;DHT22;37940;53.002;6.930;2022-10-28T03:01:40;13.50;99.90
51914;DHT22;37940;53.002;6.930;2022-10-28T03:04:06;13.50;99.90
51914;DHT22;37940;53.002;6.930;2022-10-28T03:06:32;13.60;99.90
51914;DHT22;37940;53.002;6.930;2022-10-28T03:08:58;13.60;99.90
51914;DHT22;37940;53.002;6.930;2022-10-28T03:11:24;13.70;99.90
51914;DHT22;37940;53.002;6.930;2022-10-28T03:13:49;13.70;99.90
51914;DHT22;37940;53.002;6.930;2022-10-28T03:16:15;13.50;99.90
51914;DHT22;37940;53.002;6.930;2022-10-28T03:18:41;13.50;99.90
51914;DHT22;37940;53.002;6.930;2022-10-28T03:21:07;13.40;99.90
51914;DHT22;37940;53.002;6.930;2022-10-28T03:23:33;13.40;99.90
51914;DHT22;37940;53.002;6.930;2022-10-28T03:25:58;13.40;99.90
51914;DHT22;37940;53.002;6.930;2022-10-28T03:28:24;13.50;99.90
51914;DHT22;37940;53.002;6.930;2022-10-28T03:30:50;13.30;99.90
51914;DHT22;37940;53.002;6.930;2022-10-28T03:33:15;13.30;99.90
51914;DHT22;37940;53.002;6.930;2022-10-28T03:35:41;13.30;99.90
51914;DHT22;37940;53.002;6.930;2022-10-28T03:38:07;13.40;99.90
51914;DHT22;37940;53.002;6.930;2022-10-28T03:40:38;13.30;99.90
51914;DHT22;37940;53.002;6.930;2022-10-28T03:43:16;13.30;99.90
51914;DHT22;37940;53.002;6.930;2022-10-28T03:45:42;13.40;99.90
51914;DHT22;37940;53.002;6.930;2022-10-28T03:48:08;13.40;99.90
51914;DHT22;37940;53.002;6.930;2022-10-28T03:50:34;13.40;99.90
51914;DHT22;37940;53.002;6.930;2022-10-28T03:53:00;13.40;99.90
51914;DHT22;37940;53.002;6.930;2022-10-28T03:55:25;13.50;99.90
51914;DHT22;37940;53.002;6.930;2022-10-28T03:57:52;13.40;99.90
51914;DHT22;37940;53.002;6.930;2022-10-28T04:00:18;13.30;99.90
51914;DHT22;37940;53.002;6.930;2022-10-28T04:02:51;13.30;99.90
51914;DHT22;37940;53.002;6.930;2022-10-28T04:05:18;13.50;99.90
51914;DHT22;37940;53.002;6.930;2022-10-28T04:07:43;13.30;99.90
51914;DHT22;37940;53.002;6.930;2022-10-28T04:10:09;13.30;99.90
51914;DHT22;37940;53.002;6.930;2022-10-28T04:12:36;13.20;99.90
51914;DHT22;37940;53.002;6.930;2022-10-28T04:15:01;13.20;99.90
51914;DHT22;37940;53.002;6.930;2022-10-28T04:17:27;13.20;99.90
51914;DHT22;37940;53.002;6.930;2022-10-28T04:19:53;13.20;99.90
51914;DHT22;37940;53.002;6.930;2022-10-28T04:22:18;13.30;99.90
51914;DHT22;37940;53.002;6.930;2022-10-28T04:24:44;13.20;99.90
51914;DHT22;37940;53.002;6.930;2022-10-28T04:27:21;13.10;99.90
51914;DHT22;37940;53.002;6.930;2022-10-28T04:29:54;13.10;99.90
51914;DHT22;37940;53.002;6.930;2022-10-28T04:32:19;13.10;99.90
51914;DHT22;37940;53.002;6.930;2022-10-28T04:34:45;13.20;99.90
51914;DHT22;37940;53.002;6.930;2022-10-28T04:37:11;13.10;99.90
51914;DHT22;37940;53.002;6.930;2022-10-28T04:39:36;13.00;99.90
51914;DHT22;37940;53.002;6.930;2022-10-28T04:42:02;13.00;99.90
51914;DHT22;37940;53.002;6.930;2022-10-28T04:44:28;13.00;99.90
51914;DHT22;37940;53.002;6.930;2022-10-28T04:46:55;13.00;99.90
51914;DHT22;37940;53.002;6.930;2022-10-28T04:49:21;13.50;99.90
51914;DHT22;37940;53.002;6.930;2022-10-28T04:51:46;13.00;99.90
51914;DHT22;37940;53.002;6.930;2022-10-28T04:54:12;13.10;99.90
51914;DHT22;37940;53.002;6.930;2022-10-28T04:56:38;13.10;99.90
51914;DHT22;37940;53.002;6.930;2022-10-28T04:59:03;13.00;99.90
51914;DHT22;37940;53.002;6.930;2022-10-28T05:01:29;13.20;99.90
51914;DHT22;37940;53.002;6.930;2022-10-28T05:03:55;13.10;99.90
51914;DHT22;37940;53.002;6.930;2022-10-28T05:06:20;13.00;99.90
51914;DHT22;37940;53.002;6.930;2022-10-28T05:08:46;13.00;99.90
51914;DHT22;37940;53.002;6.930;2022-10-28T05:11:12;13.00;99.90
51914;DHT22;37940;53.002;6.930;2022-10-28T05:13:53;13.00;99.90
51914;DHT22;37940;53.002;6.930;2022-10-28T05:16:21;13.00;99.90
51914;DHT22;37940;53.002;6.930;2022-10-28T05:18:46;12.90;99.90
51914;DHT22;37940;53.002;6.930;2022-10-28T05:21:13;13.00;99.90
51914;DHT22;37940;53.002;6.930;2022-10-28T05:23:38;13.00;99.90
51914;DHT22;37940;53.002;6.930;2022-10-28T05:26:04;12.90;99.90
51914;DHT22;37940;53.002;6.930;2022-10-28T05:28:30;12.90;99.90
51914;DHT22;37940;53.002;6.930;2022-10-28T05:30:55;12.90;99.90
51914;DHT22;37940;53.002;6.930;2022-10-28T05:33:21;13.20;99.90
51914;DHT22;37940;53.002;6.930;2022-10-28T05:35:48;12.90;99.90
51914;DHT22;37940;53.002;6.930;2022-10-28T05:38:13;13.00;99.90
51914;DHT22;37940;53.002;6.930;2022-10-28T05:40:39;12.90;99.90
51914;DHT22;37940;53.002;6.930;2022-10-28T05:43:05;13.00;99.90
51914;DHT22;37940;53.002;6.930;2022-10-28T05:45:31;12.90;99.90
51914;DHT22;37940;53.002;6.930;2022-10-28T05:47:56;12.90;99.90
51914;DHT22;37940;53.002;6.930;2022-10-28T05:50:22;12.90;99.90
51914;DHT22;37940;53.002;6.930;2022-10-28T05:52:50;12.90;99.90
51914;DHT22;37940;53.002;6.930;2022-10-28T05:55:17;12.90;99.90
51914;DHT22;37940;53.002;6.930;2022-10-28T05:57:46;12.90;99.90
51914;DHT22;37940;53.002;6.930;2022-10-28T06:00:13;12.90;99.90
51914;DHT22;37940;53.002;6.930;2022-10-28T06:02:40;12.90;99.90
51914;DHT22;37940;53.002;6.930;2022-10-28T06:05:06;12.90;99.90
51914;DHT22;37940;53.002;6.930;2022-10-28T06:07:32;12.90;99.90
51914;DHT22;37940;53.002;6.930;2022-10-28T06:09:59;12.90;99.90
51914;DHT22;37940;53.002;6.930;2022-10-28T06:12:25;13.00;99.90
51914;DHT22;37940;53.002;6.930;2022-10-28T06:14:51;12.90;99.90
51914;DHT22;37940;53.002;6.930;2022-10-28T06:17:17;12.80;99.90
51914;DHT22;37940;53.002;6.930;2022-10-28T06:19:42;12.80;99.90
51914;DHT22;37940;53.002;6.930;2022-10-28T06:22:08;12.80;99.90
51914;DHT22;37940;53.002;6.930;2022-10-28T06:24:37;12.90;99.90
51914;DHT22;37940;53.002;6.930;2022-10-28T06:27:10;12.90;99.90
51914;DHT22;37940;53.002;6.930;2022-10-28T06:29:40;12.90;99.90
51914;DHT22;37940;53.002;6.930;2022-10-28T06:32:08;12.90;99.90
51914;DHT22;37940;53.002;6.930;2022-10-28T06:34:35;13.00;99.90
51914;DHT22;37940;53.002;6.930;2022-10-28T06:37:00;12.90;99.90
51914;DHT22;37940;53.002;6.930;2022-10-28T06:39:26;12.90;99.90
51914;DHT22;37940;53.002;6.930;2022-10-28T06:41:52;13.20;99.90
51914;DHT22;37940;53.002;6.930;2022-10-28T06:44:17;12.90;99.90
51914;DHT22;37940;53.002;6.930;2022-10-28T06:46:43;12.90;99.90
51914;DHT22;37940;53.002;6.930;2022-10-28T06:49:09;12.90;99.90
51914;DHT22;37940;53.002;6.930;2022-10-28T06:51:34;13.00;99.90
51914;DHT22;37940;53.002;6.930;2022-10-28T06:54:00;12.90;99.90
51914;DHT22;37940;53.002;6.930;2022-10-28T06:56:26;12.90;99.90
51914;DHT22;37940;53.002;6.930;2022-10-28T06:58:53;12.90;99.90
51914;DHT22;37940;53.002;6.930;2022-10-28T07:01:19;12.90;99.90
51914;DHT22;37940;53.002;6.930;2022-10-28T07:03:46;12.90;99.90
51914;DHT22;37940;53.002;6.930;2022-10-28T07:06:12;13.00;99.90
51914;DHT22;37940;53.002;6.930;2022-10-28T07:08:38;13.10;99.90
51914;DHT22;37940;53.002;6.930;2022-10-28T07:11:03;13.10;99.90
51914;DHT22;37940;53.002;6.930;2022-10-28T07:13:29;13.10;99.90
51914;DHT22;37940;53.002;6.930;2022-10-28T07:15:58;13.10;99.90
51914;DHT22;37940;53.002;6.930;2022-10-28T07:18:25;13.20;99.90
51914;DHT22;37940;53.002;6.930;2022-10-28T07:20:51;13.20;99.90
51914;DHT22;37940;53.002;6.930;2022-10-28T07:23:17;13.30;99.90
51914;DHT22;37940;53.002;6.930;2022-10-28T07:25:53;13.30;99.90
51914;DHT22;37940;53.002;6.930;2022-10-28T07:28:21;13.40;99.90
51914;DHT22;37940;53.002;6.930;2022-10-28T07:30:47;13.50;99.90
51914;DHT22;37940;53.002;6.930;2022-10-28T07:33:12;13.50;99.90
51914;DHT22;37940;53.002;6.930;2022-10-28T07:35:38;13.60;99.90
51914;DHT22;37940;53.002;6.930;2022-10-28T07:38:04;13.60;99.90
51914;DHT22;37940;53.002;6.930;2022-10-28T07:40:30;13.60;99.90
51914;DHT22;37940;53.002;6.930;2022-10-28T07:42:57;13.70;99.90
51914;DHT22;37940;53.002;6.930;2022-10-28T07:45:23;13.70;99.90
51914;DHT22;37940;53.002;6.930;2022-10-28T07:47:49;13.70;99.90
51914;DHT22;37940;53.002;6.930;2022-10-28T07:50:15;13.90;99.90
51914;DHT22;37940;53.002;6.930;2022-10-28T07:52:41;14.00;99.90
51914;DHT22;37940;53.002;6.930;2022-10-28T07:55:08;13.90;99.90
51914;DHT22;37940;53.002;6.930;2022-10-28T07:57:34;13.90;99.90
51914;DHT22;37940;53.002;6.930;2022-10-28T08:00:00;14.00;99.90
51914;DHT22;37940;53.002;6.930;2022-10-28T08:02:26;14.10;99.90
51914;DHT22;37940;53.002;6.930;2022-10-28T08:04:52;14.20;99.90
51914;DHT22;37940;53.002;6.930;2022-10-28T08:07:18;14.30;99.90
51914;DHT22;37940;53.002;6.930;2022-10-28T08:09:44;14.30;99.90
51914;DHT22;37940;53.002;6.930;2022-10-28T08:12:14;14.50;99.90
51914;DHT22;37940;53.002;6.930;2022-10-28T08:14:40;14.50;99.90
51914;DHT22;37940;53.002;6.930;2022-10-28T08:17:06;14.60;99.90
51914;DHT22;37940;53.002;6.930;2022-10-28T08:19:32;14.70;99.90
51914;DHT22;37940;53.002;6.930;2022-10-28T08:21:58;14.80;99.90
51914;DHT22;37940;53.002;6.930;2022-10-28T08:24:23;14.90;99.90
51914;DHT22;37940;53.002;6.930;2022-10-28T08:26:50;15.00;99.90
51914;DHT22;37940;53.002;6.930;2022-10-28T08:29:16;15.10;99.90
51914;DHT22;37940;53.002;6.930;2022-10-28T08:31:42;15.40;99.90
51914;DHT22;37940;53.002;6.930;2022-10-28T08:34:08;15.40;99.90
51914;DHT22;37940;53.002;6.930;2022-10-28T08:36:34;15.50;99.90
51914;DHT22;37940;53.002;6.930;2022-10-28T08:39:00;15.60;99.90
51914;DHT22;37940;53.002;6.930;2022-10-28T08:49:39;16.20;99.90
51914;DHT22;37940;53.002;6.930;2022-10-28T08:52:15;16.40;99.90
51914;DHT22;37940;53.002;6.930;2022-10-28T08:55:13;16.50;99.90
51914;DHT22;37940;53.002;6.930;2022-10-28T08:57:43;16.60;99.90
51914;DHT22;37940;53.002;6.930;2022-10-28T09:00:36;16.80;99.90
51914;DHT22;37940;53.002;6.930;2022-10-28T09:05:39;17.00;99.90
51914;DHT22;37940;53.002;6.930;2022-10-28T09:08:07;17.10;99.90
51914;DHT22;37940;53.002;6.930;2022-10-28T09:19:25;17.50;99.90
51914;DHT22;37940;53.002;6.930;2022-10-28T09:24:52;17.90;99.90
51914;DHT22;37940;53.002;6.930;2022-10-28T09:35:31;18.30;99.90
51914;DHT22;37940;53.002;6.930;2022-10-28T09:38:26;18.40;99.90
51914;DHT22;37940;53.002;6.930;2022-10-28T09:40:57;18.50;99.90
51914;DHT22;37940;53.002;6.930;2022-10-28T09:43:29;18.50;99.90
51914;DHT22;37940;53.002;6.930;2022-10-28T09:46:04;18.50;99.90
51914;DHT22;37940;53.002;6.930;2022-10-28T09:48:38;18.50;99.90
51914;DHT22;37940;53.002;6.930;2022-10-28T09:51:05;18.50;99.90
51914;DHT22;37940;53.002;6.930;2022-10-28T09:53:46;18.60;99.90
51914;DHT22;37940;53.002;6.930;2022-10-28T09:56:14;18.70;99.90
51914;DHT22;37940;53.002;6.930;2022-10-28T09:58:44;18.70;99.90
51914;DHT22;37940;53.002;6.930;2022-10-28T10:01:11;18.80;99.90
51914;DHT22;37940;53.002;6.930;2022-10-28T10:03:38;18.80;99.90
51914;DHT22;37940;53.002;6.930;2022-10-28T10:08:41;18.90;99.90
51914;DHT22;37940;53.002;6.930;2022-10-28T10:13:42;19.00;99.90
51914;DHT22;37940;53.002;6.930;2022-10-28T10:19:06;19.10;99.90
51914;DHT22;37940;53.002;6.930;2022-10-28T10:21:52;19.00;99.90
51914;DHT22;37940;53.002;6.930;2022-10-28T10:24:33;19.10;99.90
51914;DHT22;37940;53.002;6.930;2022-10-28T10:27:19;19.10;99.90
51914;DHT22;37940;53.002;6.930;2022-10-28T10:29:50;19.10;99.90
51914;DHT22;37940;53.002;6.930;2022-10-28T10:32:32;19.10;99.90
51914;DHT22;37940;53.002;6.930;2022-10-28T10:35:22;19.20;99.90
51914;DHT22;37940;53.002;6.930;2022-10-28T10:37:50;19.20;99.90
51914;DHT22;37940;53.002;6.930;2022-10-28T10:43:13;19.20;99.90
51914;DHT22;37940;53.002;6.930;2022-10-28T10:46:29;19.20;99.90
51914;DHT22;37940;53.002;6.930;2022-10-28T10:48:36;19.20;99.90
51914;DHT22;37940;53.002;6.930;2022-10-28T10:51:24;19.30;99.90
51914;DHT22;37940;53.002;6.930;2022-10-28T10:53:55;19.30;99.90
51914;DHT22;37940;53.002;6.930;2022-10-28T10:56:27;19.30;99.90
51914;DHT22;37940;53.002;6.930;2022-10-28T10:58:58;19.40;99.90
51914;DHT22;37940;53.002;6.930;2022-10-28T11:01:27;19.40;99.90
51914;DHT22;37940;53.002;6.930;2022-10-28T11:03:57;19.40;99.90
51914;DHT22;37940;53.002;6.930;2022-10-28T11:06:26;19.40;99.90
51914;DHT22;37940;53.002;6.930;2022-10-28T11:09:04;19.50;99.90
51914;DHT22;37940;53.002;6.930;2022-10-28T11:11:38;19.40;99.90
51914;DHT22;37940;53.002;6.930;2022-10-28T11:16:52;19.50;99.90
51914;DHT22;37940;53.002;6.930;2022-10-28T11:19:33;19.50;99.90
51914;DHT22;37940;53.002;6.930;2022-10-28T11:27:37;19.50;99.90
51914;DHT22;37940;53.002;6.930;2022-10-28T11:30:15;19.50;99.90
51914;DHT22;37940;53.002;6.930;2022-10-28T11:40:09;19.70;99.90
51914;DHT22;37940;53.002;6.930;2022-10-28T11:42:47;19.80;99.90
51914;DHT22;37940;53.002;6.930;2022-10-28T11:50:44;20.10;99.90
51914;DHT22;37940;53.002;6.930;2022-10-28T11:56:30;20.10;99.90
51914;DHT22;37940;53.002;6.930;2022-10-28T12:04:39;20.20;99.90
51914;DHT22;37940;53.002;6.930;2022-10-28T12:07:10;20.20;99.90
51914;DHT22;37940;53.002;6.930;2022-10-28T12:15:32;20.30;99.90
51914;DHT22;37940;53.002;6.930;2022-10-28T12:18:18;20.40;99.90
51914;DHT22;37940;53.002;6.930;2022-10-28T12:23:21;20.60;99.90
51914;DHT22;37940;53.002;6.930;2022-10-28T12:25:51;20.70;99.90
51914;DHT22;37940;53.002;6.930;2022-10-28T12:28:24;20.70;99.90
51914;DHT22;37940;53.002;6.930;2022-10-28T12:30:52;20.70;99.90
51914;DHT22;37940;53.002;6.930;2022-10-28T12:33:40;20.70;99.90
51914;DHT22;37940;53.002;6.930;2022-10-28T12:41:39;20.70;99.90
51914;DHT22;37940;53.002;6.930;2022-10-28T12:44:17;20.70;99.90
51914;DHT22;37940;53.002;6.930;2022-10-28T12:47:21;20.80;99.90
51914;DHT22;37940;53.002;6.930;2022-10-28T12:50:04;20.70;99.90
51914;DHT22;37940;53.002;6.930;2022-10-28T12:52:46;20.70;99.90
51914;DHT22;37940;53.002;6.930;2022-10-28T12:55:47;20.70;99.90
51914;DHT22;37940;53.002;6.930;2022-10-28T12:58:34;20.70;99.90
51914;DHT22;37940;53.002;6.930;2022-10-28T13:01:09;20.70;99.90
51914;DHT22;37940;53.002;6.930;2022-10-28T13:03:35;20.70;99.90
51914;DHT22;37940;53.002;6.930;2022-10-28T13:15:29;20.50;99.90
51914;DHT22;37940;53.002;6.930;2022-10-28T13:18:29;20.70;99.90
51914;DHT22;37940;53.002;6.930;2022-10-28T13:23:50;20.50;99.90
51914;DHT22;37940;53.002;6.930;2022-10-28T13:26:25;20.50;99.90
51914;DHT22;37940;53.002;6.930;2022-10-28T13:28:55;20.60;99.90
51914;DHT22;37940;53.002;6.930;2022-10-28T13:31:22;20.60;99.90
51914;DHT22;37940;53.002;6.930;2022-10-28T13:33:58;20.50;99.90
51914;DHT22;37940;53.002;6.930;2022-10-28T13:36:26;20.50;99.90
51914;DHT22;37940;53.002;6.930;2022-10-28T13:39:01;20.60;99.90
51914;DHT22;37940;53.002;6.930;2022-10-28T13:41:31;20.60;99.90
51914;DHT22;37940;53.002;6.930;2022-10-28T13:49:27;20.70;99.90
51914;DHT22;37940;53.002;6.930;2022-10-28T14:00:05;20.80;99.90
51914;DHT22;37940;53.002;6.930;2022-10-28T14:05:08;20.80;99.90
51914;DHT22;37940;53.002;6.930;2022-10-28T14:07:37;20.70;99.90
51914;DHT22;37940;53.002;6.930;2022-10-28T14:10:23;20.70;99.90
51914;DHT22;37940;53.002;6.930;2022-10-28T14:13:05;20.60;99.90
51914;DHT22;37940;53.002;6.930;2022-10-28T14:15:38;20.50;99.90
51914;DHT22;37940;53.002;6.930;2022-10-28T14:50:25;19.70;99.90
51914;DHT22;37940;53.002;6.930;2022-10-28T14:52:53;19.60;99.90
51914;DHT22;37940;53.002;6.930;2022-10-28T14:55:30;19.60;99.90
51914;DHT22;37940;53.002;6.930;2022-10-28T14:58:22;19.50;99.90
51914;DHT22;37940;53.002;6.930;2022-10-28T15:00:58;19.50;99.90
51914;DHT22;37940;53.002;6.930;2022-10-28T15:03:26;19.50;99.90
51914;DHT22;37940;53.002;6.930;2022-10-28T15:05:51;19.50;99.90
51914;DHT22;37940;53.002;6.930;2022-10-28T15:08:17;19.40;99.90
51914;DHT22;37940;53.002;6.930;2022-10-28T15:10:47;19.40;99.90
51914;DHT22;37940;53.002;6.930;2022-10-28T15:13:15;19.40;99.90
51914;DHT22;37940;53.002;6.930;2022-10-28T15:15:51;19.40;99.90
51914;DHT22;37940;53.002;6.930;2022-10-28T15:18:23;19.30;99.90
51914;DHT22;37940;53.002;6.930;2022-10-28T15:21:07;19.30;99.90
51914;DHT22;37940;53.002;6.930;2022-10-28T15:23:33;19.30;99.90
51914;DHT22;37940;53.002;6.930;2022-10-28T15:26:11;19.20;99.90
51914;DHT22;37940;53.002;6.930;2022-10-28T15:28:38;19.20;99.90
51914;DHT22;37940;53.002;6.930;2022-10-28T15:31:04;19.10;99.90
51914;DHT22;37940;53.002;6.930;2022-10-28T15:33:35;19.10;99.90
51914;DHT22;37940;53.002;6.930;2022-10-28T15:36:21;19.00;99.90
51914;DHT22;37940;53.002;6.930;2022-10-28T15:38:49;19.00;99.90
51914;DHT22;37940;53.002;6.930;2022-10-28T15:43:54;18.90;99.90
51914;DHT22;37940;53.002;6.930;2022-10-28T15:46:22;18.80;99.90
51914;DHT22;37940;53.002;6.930;2022-10-28T15:48:52;18.80;99.90
51914;DHT22;37940;53.002;6.930;2022-10-28T15:51:19;18.70;99.90
51914;DHT22;37940;53.002;6.930;2022-10-28T15:53:48;18.70;99.90
51914;DHT22;37940;53.002;6.930;2022-10-28T15:56:27;18.60;99.90
51914;DHT22;37940;53.002;6.930;2022-10-28T16:04:03;18.40;99.90
51914;DHT22;37940;53.002;6.930;2022-10-28T16:06:33;18.40;99.90
51914;DHT22;37940;53.002;6.930;2022-10-28T16:09:01;18.30;99.90
51914;DHT22;37940;53.002;6.930;2022-10-28T16:11:28;18.30;99.90
51914;DHT22;37940;53.002;6.930;2022-10-28T16:13:55;18.20;99.90
51914;DHT22;37940;53.002;6.930;2022-10-28T16:16:24;18.10;99.90
51914;DHT22;37940;53.002;6.930;2022-10-28T16:19:27;18.10;99.90
51914;DHT22;37940;53.002;6.930;2022-10-28T16:21:54;18.00;99.90
51914;DHT22;37940;53.002;6.930;2022-10-28T16:24:20;17.90;99.90
51914;DHT22;37940;53.002;6.930;2022-10-28T16:26:46;17.90;99.90
51914;DHT22;37940;53.002;6.930;2022-10-28T16:29:12;17.80;99.90
51914;DHT22;37940;53.002;6.930;2022-10-28T16:31:37;17.80;99.90
51914;DHT22;37940;53.002;6.930;2022-10-28T16:34:07;17.70;99.90
51914;DHT22;37940;53.002;6.930;2022-10-28T16:36:34;17.70;99.90
51914;DHT22;37940;53.002;6.930;2022-10-28T16:38:59;17.60;99.90
51914;DHT22;37940;53.002;6.930;2022-10-28T16:41:25;17.60;99.90
51914;DHT22;37940;53.002;6.930;2022-10-28T16:43:54;17.50;99.90
51914;DHT22;37940;53.002;6.930;2022-10-28T16:46:28;17.50;99.90
51914;DHT22;37940;53.002;6.930;2022-10-28T16:48:53;17.50;99.90
51914;DHT22;37940;53.002;6.930;2022-10-28T16:51:20;17.50;99.90
51914;DHT22;37940;53.002;6.930;2022-10-28T16:53:46;17.50;99.90
51914;DHT22;37940;53.002;6.930;2022-10-28T16:56:14;17.50;99.90
51914;DHT22;37940;53.002;6.930;2022-10-28T16:58:40;17.50;99.90
51914;DHT22;37940;53.002;6.930;2022-10-28T17:01:13;17.50;99.90
51914;DHT22;37940;53.002;6.930;2022-10-28T17:03:39;17.50;99.90
51914;DHT22;37940;53.002;6.930;2022-10-28T17:06:05;17.50;99.90
51914;DHT22;37940;53.002;6.930;2022-10-28T17:08:31;17.50;99.90
51914;DHT22;37940;53.002;6.930;2022-10-28T17:10:57;17.40;99.90
51914;DHT22;37940;53.002;6.930;2022-10-28T17:13:23;17.50;99.90
51914;DHT22;37940;53.002;6.930;2022-10-28T17:15:51;17.50;99.90
51914;DHT22;37940;53.002;6.930;2022-10-28T17:18:18;17.50;99.90
51914;DHT22;37940;53.002;6.930;2022-10-28T17:20:44;17.50;99.90
51914;DHT22;37940;53.002;6.930;2022-10-28T17:23:09;17.50;99.90
51914;DHT22;37940;53.002;6.930;2022-10-28T17:25:35;17.50;99.90
51914;DHT22;37940;53.002;6.930;2022-10-28T17:28:01;17.40;99.90
51914;DHT22;37940;53.002;6.930;2022-10-28T17:30:26;17.40;99.90
51914;DHT22;37940;53.002;6.930;2022-10-28T17:32:53;17.40;99.90
51914;DHT22;37940;53.002;6.930;2022-10-28T17:35:20;17.40;99.90
51914;DHT22;37940;53.002;6.930;2022-10-28T17:37:46;17.30;99.90
51914;DHT22;37940;53.002;6.930;2022-10-28T17:40:14;17.30;99.90
51914;DHT22;37940;53.002;6.930;2022-10-28T17:42:41;17.30;99.90
51914;DHT22;37940;53.002;6.930;2022-10-28T17:45:08;17.20;99.90
51914;DHT22;37940;53.002;6.930;2022-10-28T17:47:34;17.20;99.90
51914;DHT22;37940;53.002;6.930;2022-10-28T17:50:00;17.10;99.90
51914;DHT22;37940;53.002;6.930;2022-10-28T17:52:27;17.10;99.90
51914;DHT22;37940;53.002;6.930;2022-10-28T17:54:52;17.10;99.90
51914;DHT22;37940;53.002;6.930;2022-10-28T17:57:18;17.10;99.90
51914;DHT22;37940;53.002;6.930;2022-10-28T17:59:44;17.10;99.90
51914;DHT22;37940;53.002;6.930;2022-10-28T18:02:10;17.20;99.90
51914;DHT22;37940;53.002;6.930;2022-10-28T18:04:40;17.20;99.90
51914;DHT22;37940;53.002;6.930;2022-10-28T18:07:13;17.20;99.90
51914;DHT22;37940;53.002;6.930;2022-10-28T18:09:39;17.20;99.90
51914;DHT22;37940;53.002;6.930;2022-10-28T18:12:06;17.20;99.90
51914;DHT22;37940;53.002;6.930;2022-10-28T18:14:33;17.20;99.90
51914;DHT22;37940;53.002;6.930;2022-10-28T18:16:58;17.20;99.90
51914;DHT22;37940;53.002;6.930;2022-10-28T18:19:24;17.20;99.90
51914;DHT22;37940;53.002;6.930;2022-10-28T18:21:50;17.20;99.90
51914;DHT22;37940;53.002;6.930;2022-10-28T18:24:16;17.20;99.90
51914;DHT22;37940;53.002;6.930;2022-10-28T18:26:41;17.20;99.90
51914;DHT22;37940;53.002;6.930;2022-10-28T18:29:08;17.20;99.90
51914;DHT22;37940;53.002;6.930;2022-10-28T18:31:38;17.20;99.90
51914;DHT22;37940;53.002;6.930;2022-10-28T18:34:05;17.10;99.90
51914;DHT22;37940;53.002;6.930;2022-10-28T18:36:32;17.10;99.90
51914;DHT22;37940;53.002;6.930;2022-10-28T18:39:01;17.10;99.90
51914;DHT22;37940;53.002;6.930;2022-10-28T18:41:29;17.10;99.90
51914;DHT22;37940;53.002;6.930;2022-10-28T18:43:57;17.10;99.90
51914;DHT22;37940;53.002;6.930;2022-10-28T18:46:24;17.00;99.90
51914;DHT22;37940;53.002;6.930;2022-10-28T18:48:50;17.00;99.90
51914;DHT22;37940;53.002;6.930;2022-10-28T18:51:16;17.00;99.90
51914;DHT22;37940;53.002;6.930;2022-10-28T18:53:46;17.00;99.90
51914;DHT22;37940;53.002;6.930;2022-10-28T18:56:19;16.90;99.90
51914;DHT22;37940;53.002;6.930;2022-10-28T18:58:45;16.90;99.90
51914;DHT22;37940;53.002;6.930;2022-10-28T19:01:22;16.80;99.90